Coro, Venezuela
Current Conditions -  °F | °C
As of 3:00 AM on Friday 24 Oct 2014 (Local Time) from TNCC Reporting Station
Few Clouds Few Clouds  
Wind Chill: 82°   Ceiling: Unl
Heat Index: 91°   Visibility: 6mi
Dew Point: 77°   Wind: 9mph
Humidity: 84%   Direction: 100°E
Pressure: 29.83"   Gusts: NA
Location:  11.42°N, 69.68°W
Report Text: TNCC 240700Z 10008KT 080V140 9999 FEW014 28/25 Q1010 NOSIG
Loading
Personal Weather Stations






























Interactive Weather Map
Tropical Storm Tracking
New forecast layout! Learn more

10-Day Weather Forecast

Advertisements
Track Severe Weather on mobile